sensor_id;sensor_type;location;lat;lon;timestamp;temperature;humidity
5870;DHT22;2961;47.702;9.410;2023-11-21T00:00:57;7.50;99.90
5870;DHT22;2961;47.702;9.410;2023-11-21T00:03:27;7.50;99.90
5870;DHT22;2961;47.702;9.410;2023-11-21T00:05:54;7.50;99.90
5870;DHT22;2961;47.702;9.410;2023-11-21T00:08:21;7.40;99.90
5870;DHT22;2961;47.702;9.410;2023-11-21T00:10:47;7.30;99.90
5870;DHT22;2961;47.702;9.410;2023-11-21T00:13:14;7.20;99.90
5870;DHT22;2961;47.702;9.410;2023-11-21T00:15:42;7.20;99.90
5870;DHT22;2961;47.702;9.410;2023-11-21T00:18:09;7.10;99.90
5870;DHT22;2961;47.702;9.410;2023-11-21T00:20:36;7.10;99.90
5870;DHT22;2961;47.702;9.410;2023-11-21T00:23:03;7.00;99.90
5870;DHT22;2961;47.702;9.410;2023-11-21T00:25:30;6.90;99.90
5870;DHT22;2961;47.702;9.410;2023-11-21T00:27:57;6.90;99.90
5870;DHT22;2961;47.702;9.410;2023-11-21T00:30:25;6.80;99.90
5870;DHT22;2961;47.702;9.410;2023-11-21T00:32:53;6.80;99.90
5870;DHT22;2961;47.702;9.410;2023-11-21T00:35:20;6.70;99.90
5870;DHT22;2961;47.702;9.410;2023-11-21T00:37:46;6.70;99.90
5870;DHT22;2961;47.702;9.410;2023-11-21T00:40:15;6.80;99.90
5870;DHT22;2961;47.702;9.410;2023-11-21T00:42:44;6.90;99.90
5870;DHT22;2961;47.702;9.410;2023-11-21T00:45:12;6.80;99.90
5870;DHT22;2961;47.702;9.410;2023-11-21T00:47:38;6.80;99.90
5870;DHT22;2961;47.702;9.410;2023-11-21T00:50:07;6.80;99.90
5870;DHT22;2961;47.702;9.410;2023-11-21T00:52:35;6.80;99.90
5870;DHT22;2961;47.702;9.410;2023-11-21T00:55:02;6.70;99.90
5870;DHT22;2961;47.702;9.410;2023-11-21T00:57:29;6.70;99.90
5870;DHT22;2961;47.702;9.410;2023-11-21T00:59:55;6.70;99.90
5870;DHT22;2961;47.702;9.410;2023-11-21T01:02:22;6.70;99.90
5870;DHT22;2961;47.702;9.410;2023-11-21T01:04:49;6.70;99.90
5870;DHT22;2961;47.702;9.410;2023-11-21T01:07:17;6.70;99.90
5870;DHT22;2961;47.702;9.410;2023-11-21T01:09:45;6.70;99.90
5870;DHT22;2961;47.702;9.410;2023-11-21T01:12:12;6.60;99.90
5870;DHT22;2961;47.702;9.410;2023-11-21T01:14:39;6.70;99.90
5870;DHT22;2961;47.702;9.410;2023-11-21T01:17:06;6.60;99.90
5870;DHT22;2961;47.702;9.410;2023-11-21T01:19:33;6.60;99.90
5870;DHT22;2961;47.702;9.410;2023-11-21T01:21:59;6.60;99.90
5870;DHT22;2961;47.702;9.410;2023-11-21T01:24:27;6.60;99.90
5870;DHT22;2961;47.702;9.410;2023-11-21T01:26:54;6.60;99.90
5870;DHT22;2961;47.702;9.410;2023-11-21T01:29:21;6.60;99.90
5870;DHT22;2961;47.702;9.410;2023-11-21T01:31:48;6.60;99.90
5870;DHT22;2961;47.702;9.410;2023-11-21T01:34:15;6.50;99.90
5870;DHT22;2961;47.702;9.410;2023-11-21T01:36:41;6.50;99.90
5870;DHT22;2961;47.702;9.410;2023-11-21T01:39:08;6.60;99.90
5870;DHT22;2961;47.702;9.410;2023-11-21T01:41:40;6.60;99.90
5870;DHT22;2961;47.702;9.410;2023-11-21T01:44:09;6.50;99.90
5870;DHT22;2961;47.702;9.410;2023-11-21T01:46:36;6.50;99.90
5870;DHT22;2961;47.702;9.410;2023-11-21T01:49:04;6.50;99.90
5870;DHT22;2961;47.702;9.410;2023-11-21T01:51:32;6.50;99.90
5870;DHT22;2961;47.702;9.410;2023-11-21T01:53:59;6.50;99.90
5870;DHT22;2961;47.702;9.410;2023-11-21T01:56:26;6.50;99.90
5870;DHT22;2961;47.702;9.410;2023-11-21T01:58:55;6.50;99.90
5870;DHT22;2961;47.702;9.410;2023-11-21T02:01:22;6.40;99.90
5870;DHT22;2961;47.702;9.410;2023-11-21T02:03:49;6.40;99.90
5870;DHT22;2961;47.702;9.410;2023-11-21T02:06:16;6.40;99.90
5870;DHT22;2961;47.702;9.410;2023-11-21T02:08:43;6.40;99.90
5870;DHT22;2961;47.702;9.410;2023-11-21T02:11:10;6.40;99.90
5870;DHT22;2961;47.702;9.410;2023-11-21T02:13:38;6.40;99.90
5870;DHT22;2961;47.702;9.410;2023-11-21T02:16:09;6.40;99.90
5870;DHT22;2961;47.702;9.410;2023-11-21T02:18:38;6.40;99.90
5870;DHT22;2961;47.702;9.410;2023-11-21T02:21:05;6.40;99.90
5870;DHT22;2961;47.702;9.410;2023-11-21T02:23:33;6.50;99.90
5870;DHT22;2961;47.702;9.410;2023-11-21T02:26:00;6.50;99.90
5870;DHT22;2961;47.702;9.410;2023-11-21T02:28:30;6.40;99.90
5870;DHT22;2961;47.702;9.410;2023-11-21T02:30:56;6.40;99.90
5870;DHT22;2961;47.702;9.410;2023-11-21T02:33:24;6.40;99.90
5870;DHT22;2961;47.702;9.410;2023-11-21T02:35:51;6.40;99.90
5870;DHT22;2961;47.702;9.410;2023-11-21T02:38:20;6.40;99.90
5870;DHT22;2961;47.702;9.410;2023-11-21T02:40:48;6.40;99.90
5870;DHT22;2961;47.702;9.410;2023-11-21T02:43:15;6.30;99.90
5870;DHT22;2961;47.702;9.410;2023-11-21T02:45:42;6.30;99.90
5870;DHT22;2961;47.702;9.410;2023-11-21T02:48:09;6.30;99.90
5870;DHT22;2961;47.702;9.410;2023-11-21T02:50:36;6.30;99.90
5870;DHT22;2961;47.702;9.410;2023-11-21T02:53:03;6.30;99.90
5870;DHT22;2961;47.702;9.410;2023-11-21T02:55:31;6.30;99.90
5870;DHT22;2961;47.702;9.410;2023-11-21T02:58:01;6.30;99.90
5870;DHT22;2961;47.702;9.410;2023-11-21T03:00:29;6.40;99.90
5870;DHT22;2961;47.702;9.410;2023-11-21T03:02:56;6.40;99.90
5870;DHT22;2961;47.702;9.410;2023-11-21T03:05:23;6.30;99.90
5870;DHT22;2961;47.702;9.410;2023-11-21T03:07:50;6.30;99.90
5870;DHT22;2961;47.702;9.410;2023-11-21T03:10:16;6.30;99.90
5870;DHT22;2961;47.702;9.410;2023-11-21T03:12:43;6.30;99.90
5870;DHT22;2961;47.702;9.410;2023-11-21T03:15:12;6.30;99.90
5870;DHT22;2961;47.702;9.410;2023-11-21T03:17:39;6.30;99.90
5870;DHT22;2961;47.702;9.410;2023-11-21T03:20:07;6.30;99.90
5870;DHT22;2961;47.702;9.410;2023-11-21T03:22:36;6.30;99.90
5870;DHT22;2961;47.702;9.410;2023-11-21T03:25:04;6.30;99.90
5870;DHT22;2961;47.702;9.410;2023-11-21T03:27:31;6.30;99.90
5870;DHT22;2961;47.702;9.410;2023-11-21T03:29:58;6.30;99.90
5870;DHT22;2961;47.702;9.410;2023-11-21T03:32:26;6.30;99.90
5870;DHT22;2961;47.702;9.410;2023-11-21T03:34:54;6.20;99.90
5870;DHT22;2961;47.702;9.410;2023-11-21T03:37:23;6.20;99.90
5870;DHT22;2961;47.702;9.410;2023-11-21T03:39:50;6.20;99.90
5870;DHT22;2961;47.702;9.410;2023-11-21T03:42:16;6.20;99.90
5870;DHT22;2961;47.702;9.410;2023-11-21T03:44:46;6.10;99.90
5870;DHT22;2961;47.702;9.410;2023-11-21T03:47:13;6.20;99.90
5870;DHT22;2961;47.702;9.410;2023-11-21T03:49:41;6.10;99.90
5870;DHT22;2961;47.702;9.410;2023-11-21T03:52:08;6.10;99.90
5870;DHT22;2961;47.702;9.410;2023-11-21T03:54:35;6.10;99.90
5870;DHT22;2961;47.702;9.410;2023-11-21T03:57:03;6.10;99.90
5870;DHT22;2961;47.702;9.410;2023-11-21T03:59:30;6.10;99.90
5870;DHT22;2961;47.702;9.410;2023-11-21T04:01:56;6.10;99.90
5870;DHT22;2961;47.702;9.410;2023-11-21T04:04:23;6.10;99.90
5870;DHT22;2961;47.702;9.410;2023-11-21T04:06:51;6.10;99.90
5870;DHT22;2961;47.702;9.410;2023-11-21T04:09:19;6.10;99.90
5870;DHT22;2961;47.702;9.410;2023-11-21T04:11:45;6.10;99.90
5870;DHT22;2961;47.702;9.410;2023-11-21T04:14:12;6.10;99.90
5870;DHT22;2961;47.702;9.410;2023-11-21T04:16:40;6.20;99.90
5870;DHT22;2961;47.702;9.410;2023-11-21T04:19:07;6.20;99.90
5870;DHT22;2961;47.702;9.410;2023-11-21T04:21:34;6.20;99.90
5870;DHT22;2961;47.702;9.410;2023-11-21T04:24:03;6.20;99.90
5870;DHT22;2961;47.702;9.410;2023-11-21T04:26:30;6.20;99.90
5870;DHT22;2961;47.702;9.410;2023-11-21T04:28:57;6.20;99.90
5870;DHT22;2961;47.702;9.410;2023-11-21T04:31:24;6.20;99.90
5870;DHT22;2961;47.702;9.410;2023-11-21T04:33:51;6.20;99.90
5870;DHT22;2961;47.702;9.410;2023-11-21T04:36:18;6.20;99.90
5870;DHT22;2961;47.702;9.410;2023-11-21T04:38:46;6.10;99.90
5870;DHT22;2961;47.702;9.410;2023-11-21T04:41:14;6.10;99.90
5870;DHT22;2961;47.702;9.410;2023-11-21T04:43:41;6.00;99.90
5870;DHT22;2961;47.702;9.410;2023-11-21T04:46:09;6.00;99.90
5870;DHT22;2961;47.702;9.410;2023-11-21T04:48:35;6.00;99.90
5870;DHT22;2961;47.702;9.410;2023-11-21T04:51:02;6.00;99.90
5870;DHT22;2961;47.702;9.410;2023-11-21T04:53:30;6.00;99.90
5870;DHT22;2961;47.702;9.410;2023-11-21T04:55:57;6.00;99.90
5870;DHT22;2961;47.702;9.410;2023-11-21T04:58:25;6.00;99.90
5870;DHT22;2961;47.702;9.410;2023-11-21T05:00:52;6.00;99.90
5870;DHT22;2961;47.702;9.410;2023-11-21T05:03:19;6.10;99.90
5870;DHT22;2961;47.702;9.410;2023-11-21T05:05:46;6.20;99.90
5870;DHT22;2961;47.702;9.410;2023-11-21T05:08:13;6.20;99.90
5870;DHT22;2961;47.702;9.410;2023-11-21T05:10:40;6.10;99.90
5870;DHT22;2961;47.702;9.410;2023-11-21T05:13:06;6.10;99.90
5870;DHT22;2961;47.702;9.410;2023-11-21T05:15:36;6.10;99.90
5870;DHT22;2961;47.702;9.410;2023-11-21T05:18:04;6.10;99.90
5870;DHT22;2961;47.702;9.410;2023-11-21T05:20:31;6.10;99.90
5870;DHT22;2961;47.702;9.410;2023-11-21T05:22:58;6.10;99.90
5870;DHT22;2961;47.702;9.410;2023-11-21T05:25:25;6.20;99.90
5870;DHT22;2961;47.702;9.410;2023-11-21T05:27:52;6.20;99.90
5870;DHT22;2961;47.702;9.410;2023-11-21T05:30:20;6.20;99.90
5870;DHT22;2961;47.702;9.410;2023-11-21T05:32:49;6.20;99.90
5870;DHT22;2961;47.702;9.410;2023-11-21T05:35:16;6.20;99.90
5870;DHT22;2961;47.702;9.410;2023-11-21T05:37:43;6.20;99.90
5870;DHT22;2961;47.702;9.410;2023-11-21T05:40:11;6.20;99.90
5870;DHT22;2961;47.702;9.410;2023-11-21T05:42:39;6.20;99.90
5870;DHT22;2961;47.702;9.410;2023-11-21T05:45:07;6.20;99.90
5870;DHT22;2961;47.702;9.410;2023-11-21T05:47:37;6.20;99.90
5870;DHT22;2961;47.702;9.410;2023-11-21T05:50:07;6.10;99.90
5870;DHT22;2961;47.702;9.410;2023-11-21T05:52:37;6.10;99.90
5870;DHT22;2961;47.702;9.410;2023-11-21T05:55:05;6.10;99.90
5870;DHT22;2961;47.702;9.410;2023-11-21T05:57:33;6.10;99.90
5870;DHT22;2961;47.702;9.410;2023-11-21T06:00:02;6.10;99.90
5870;DHT22;2961;47.702;9.410;2023-11-21T06:02:37;6.10;99.90
5870;DHT22;2961;47.702;9.410;2023-11-21T06:05:07;6.20;99.90
5870;DHT22;2961;47.702;9.410;2023-11-21T06:07:34;6.30;99.90
5870;DHT22;2961;47.702;9.410;2023-11-21T06:10:01;6.30;99.90
5870;DHT22;2961;47.702;9.410;2023-11-21T06:12:31;6.30;99.90
5870;DHT22;2961;47.702;9.410;2023-11-21T06:15:01;6.30;99.90
5870;DHT22;2961;47.702;9.410;2023-11-21T06:17:29;6.30;99.90
5870;DHT22;2961;47.702;9.410;2023-11-21T06:19:56;6.30;99.90
5870;DHT22;2961;47.702;9.410;2023-11-21T06:22:24;6.30;99.90
5870;DHT22;2961;47.702;9.410;2023-11-21T06:24:51;6.30;99.90
5870;DHT22;2961;47.702;9.410;2023-11-21T06:27:18;6.40;99.90
5870;DHT22;2961;47.702;9.410;2023-11-21T06:29:44;6.40;99.90
5870;DHT22;2961;47.702;9.410;2023-11-21T06:32:12;6.30;99.90
5870;DHT22;2961;47.702;9.410;2023-11-21T06:34:41;6.30;99.90
5870;DHT22;2961;47.702;9.410;2023-11-21T06:37:08;6.30;99.90
5870;DHT22;2961;47.702;9.410;2023-11-21T06:39:36;6.30;99.90
5870;DHT22;2961;47.702;9.410;2023-11-21T06:42:04;6.30;99.90
5870;DHT22;2961;47.702;9.410;2023-11-21T06:44:30;6.30;99.90
5870;DHT22;2961;47.702;9.410;2023-11-21T06:46:58;6.40;99.90
5870;DHT22;2961;47.702;9.410;2023-11-21T06:49:25;6.40;99.90
5870;DHT22;2961;47.702;9.410;2023-11-21T06:51:52;6.40;99.90
5870;DHT22;2961;47.702;9.410;2023-11-21T06:54:20;6.40;99.90
5870;DHT22;2961;47.702;9.410;2023-11-21T06:56:49;6.40;99.90
5870;DHT22;2961;47.702;9.410;2023-11-21T06:59:16;6.40;99.90
5870;DHT22;2961;47.702;9.410;2023-11-21T07:01:43;6.40;99.90
5870;DHT22;2961;47.702;9.410;2023-11-21T07:04:10;6.40;99.90
5870;DHT22;2961;47.702;9.410;2023-11-21T07:06:36;6.40;99.90
5870;DHT22;2961;47.702;9.410;2023-11-21T07:09:03;6.40;99.90
5870;DHT22;2961;47.702;9.410;2023-11-21T07:11:30;6.50;99.90
5870;DHT22;2961;47.702;9.410;2023-11-21T07:13:59;6.40;99.90
5870;DHT22;2961;47.702;9.410;2023-11-21T07:16:28;6.40;99.90
5870;DHT22;2961;47.702;9.410;2023-11-21T07:18:55;6.40;99.90
5870;DHT22;2961;47.702;9.410;2023-11-21T07:21:22;6.40;99.90
5870;DHT22;2961;47.702;9.410;2023-11-21T07:23:50;6.40;99.90
5870;DHT22;2961;47.702;9.410;2023-11-21T07:26:17;6.40;99.90
5870;DHT22;2961;47.702;9.410;2023-11-21T07:28:44;6.40;99.90
5870;DHT22;2961;47.702;9.410;2023-11-21T07:31:12;6.50;99.90
5870;DHT22;2961;47.702;9.410;2023-11-21T07:33:39;6.50;99.90
5870;DHT22;2961;47.702;9.410;2023-11-21T07:36:07;6.60;99.90
5870;DHT22;2961;47.702;9.410;2023-11-21T07:38:34;6.70;99.90
5870;DHT22;2961;47.702;9.410;2023-11-21T07:41:00;6.70;99.90
5870;DHT22;2961;47.702;9.410;2023-11-21T07:43:27;6.80;99.90
5870;DHT22;2961;47.702;9.410;2023-11-21T07:46:00;6.90;99.90
5870;DHT22;2961;47.702;9.410;2023-11-21T07:48:29;6.90;99.90
5870;DHT22;2961;47.702;9.410;2023-11-21T07:50:57;6.90;99.90
5870;DHT22;2961;47.702;9.410;2023-11-21T07:53:24;6.80;99.90
5870;DHT22;2961;47.702;9.410;2023-11-21T07:55:55;6.90;99.90
5870;DHT22;2961;47.702;9.410;2023-11-21T07:58:22;7.00;99.90
5870;DHT22;2961;47.702;9.410;2023-11-21T08:00:49;7.00;99.90
5870;DHT22;2961;47.702;9.410;2023-11-21T08:03:16;7.00;99.90
5870;DHT22;2961;47.702;9.410;2023-11-21T08:05:44;7.00;99.90
5870;DHT22;2961;47.702;9.410;2023-11-21T08:08:11;7.00;99.90
5870;DHT22;2961;47.702;9.410;2023-11-21T08:10:38;7.00;99.90
5870;DHT22;2961;47.702;9.410;2023-11-21T08:13:06;7.00;99.90
5870;DHT22;2961;47.702;9.410;2023-11-21T08:15:34;7.10;99.90
5870;DHT22;2961;47.702;9.410;2023-11-21T08:18:02;7.10;99.90
5870;DHT22;2961;47.702;9.410;2023-11-21T08:20:30;7.20;99.90
5870;DHT22;2961;47.702;9.410;2023-11-21T08:22:58;7.30;99.90
5870;DHT22;2961;47.702;9.410;2023-11-21T08:25:25;7.50;99.90
5870;DHT22;2961;47.702;9.410;2023-11-21T08:27:52;7.60;99.90
5870;DHT22;2961;47.702;9.410;2023-11-21T08:30:19;7.60;99.90
5870;DHT22;2961;47.702;9.410;2023-11-21T08:32:49;7.60;99.90
5870;DHT22;2961;47.702;9.410;2023-11-21T08:35:16;7.70;99.90
5870;DHT22;2961;47.702;9.410;2023-11-21T08:37:43;7.70;99.90
5870;DHT22;2961;47.702;9.410;2023-11-21T08:40:12;7.70;99.90
5870;DHT22;2961;47.702;9.410;2023-11-21T08:42:42;7.60;99.90
5870;DHT22;2961;47.702;9.410;2023-11-21T08:45:09;7.50;99.90
5870;DHT22;2961;47.702;9.410;2023-11-21T08:47:36;7.60;99.90
5870;DHT22;2961;47.702;9.410;2023-11-21T08:50:03;7.50;99.90
5870;DHT22;2961;47.702;9.410;2023-11-21T08:52:31;7.50;99.90
5870;DHT22;2961;47.702;9.410;2023-11-21T08:54:58;7.50;99.90
5870;DHT22;2961;47.702;9.410;2023-11-21T08:57:29;7.50;99.90
5870;DHT22;2961;47.702;9.410;2023-11-21T08:59:56;7.50;99.90
5870;DHT22;2961;47.702;9.410;2023-11-21T09:02:23;7.40;99.90
5870;DHT22;2961;47.702;9.410;2023-11-21T09:04:50;7.40;99.90
5870;DHT22;2961;47.702;9.410;2023-11-21T09:07:18;7.50;99.90
5870;DHT22;2961;47.702;9.410;2023-11-21T09:09:46;7.50;99.90
5870;DHT22;2961;47.702;9.410;2023-11-21T09:12:13;7.50;99.90
5870;DHT22;2961;47.702;9.410;2023-11-21T09:14:41;7.60;99.90
5870;DHT22;2961;47.702;9.410;2023-11-21T09:17:09;7.60;99.90
5870;DHT22;2961;47.702;9.410;2023-11-21T09:19:37;7.60;99.90
5870;DHT22;2961;47.702;9.410;2023-11-21T09:22:04;7.70;99.90
5870;DHT22;2961;47.702;9.410;2023-11-21T09:24:31;7.80;99.90
5870;DHT22;2961;47.702;9.410;2023-11-21T09:26:58;7.80;99.90
5870;DHT22;2961;47.702;9.410;2023-11-21T09:29:25;7.80;99.90
5870;DHT22;2961;47.702;9.410;2023-11-21T09:31:53;7.80;99.90
5870;DHT22;2961;47.702;9.410;2023-11-21T09:34:20;7.90;99.90
5870;DHT22;2961;47.702;9.410;2023-11-21T09:36:47;8.00;99.90
5870;DHT22;2961;47.702;9.410;2023-11-21T09:39:15;8.10;99.90
5870;DHT22;2961;47.702;9.410;2023-11-21T09:41:44;8.20;99.90
5870;DHT22;2961;47.702;9.410;2023-11-21T09:44:14;8.20;99.90
5870;DHT22;2961;47.702;9.410;2023-11-21T09:46:43;8.30;99.90
5870;DHT22;2961;47.702;9.410;2023-11-21T09:49:11;8.30;99.90
5870;DHT22;2961;47.702;9.410;2023-11-21T09:51:40;8.40;99.90
5870;DHT22;2961;47.702;9.410;2023-11-21T09:54:10;8.40;99.90
5870;DHT22;2961;47.702;9.410;2023-11-21T09:56:37;8.30;99.90
5870;DHT22;2961;47.702;9.410;2023-11-21T09:59:05;8.30;99.90
5870;DHT22;2961;47.702;9.410;2023-11-21T10:01:36;8.30;99.90
5870;DHT22;2961;47.702;9.410;2023-11-21T10:04:04;8.30;99.90
5870;DHT22;2961;47.702;9.410;2023-11-21T10:06:33;8.30;99.90
5870;DHT22;2961;47.702;9.410;2023-11-21T10:09:00;8.40;99.90
5870;DHT22;2961;47.702;9.410;2023-11-21T10:11:27;8.40;99.90
5870;DHT22;2961;47.702;9.410;2023-11-21T10:13:55;8.40;99.90
5870;DHT22;2961;47.702;9.410;2023-11-21T10:16:25;8.50;99.90
5870;DHT22;2961;47.702;9.410;2023-11-21T10:18:53;8.50;99.90
5870;DHT22;2961;47.702;9.410;2023-11-21T10:21:21;8.50;99.90
5870;DHT22;2961;47.702;9.410;2023-11-21T10:23:50;8.50;99.90
5870;DHT22;2961;47.702;9.410;2023-11-21T10:26:20;8.60;99.90
5870;DHT22;2961;47.702;9.410;2023-11-21T10:28:56;8.50;99.90
5870;DHT22;2961;47.702;9.410;2023-11-21T10:31:23;8.50;99.90
5870;DHT22;2961;47.702;9.410;2023-11-21T10:33:50;8.70;99.90
5870;DHT22;2961;47.702;9.410;2023-11-21T10:36:25;8.80;99.90
5870;DHT22;2961;47.702;9.410;2023-11-21T10:38:54;8.80;99.90
5870;DHT22;2961;47.702;9.410;2023-11-21T10:41:22;8.90;99.90
5870;DHT22;2961;47.702;9.410;2023-11-21T10:43:53;9.00;99.90
5870;DHT22;2961;47.702;9.410;2023-11-21T10:46:20;8.90;99.90
5870;DHT22;2961;47.702;9.410;2023-11-21T10:48:52;9.00;99.90
5870;DHT22;2961;47.702;9.410;2023-11-21T10:51:20;8.90;99.90
5870;DHT22;2961;47.702;9.410;2023-11-21T10:53:47;8.80;99.90
5870;DHT22;2961;47.702;9.410;2023-11-21T10:56:19;8.80;99.90
5870;DHT22;2961;47.702;9.410;2023-11-21T10:58:48;8.70;99.90
5870;DHT22;2961;47.702;9.410;2023-11-21T11:01:17;8.60;99.90
5870;DHT22;2961;47.702;9.410;2023-11-21T11:03:47;8.50;99.90
5870;DHT22;2961;47.702;9.410;2023-11-21T11:06:14;8.60;99.90
5870;DHT22;2961;47.702;9.410;2023-11-21T11:08:41;8.60;99.90
5870;DHT22;2961;47.702;9.410;2023-11-21T11:11:10;8.70;99.90
5870;DHT22;2961;47.702;9.410;2023-11-21T11:13:43;8.80;99.90
5870;DHT22;2961;47.702;9.410;2023-11-21T11:16:10;9.00;99.90
5870;DHT22;2961;47.702;9.410;2023-11-21T11:18:42;9.10;99.90
5870;DHT22;2961;47.702;9.410;2023-11-21T11:21:21;9.30;99.90
5870;DHT22;2961;47.702;9.410;2023-11-21T11:24:08;9.40;99.90
5870;DHT22;2961;47.702;9.410;2023-11-21T11:26:44;9.60;99.90
5870;DHT22;2961;47.702;9.410;2023-11-21T11:29:19;9.60;99.90
5870;DHT22;2961;47.702;9.410;2023-11-21T11:31:58;9.70;99.90
5870;DHT22;2961;47.702;9.410;2023-11-21T11:34:29;9.70;99.90
5870;DHT22;2961;47.702;9.410;2023-11-21T11:37:00;9.80;99.90
5870;DHT22;2961;47.702;9.410;2023-11-21T11:39:30;9.90;99.90
5870;DHT22;2961;47.702;9.410;2023-11-21T11:42:02;10.00;99.90
5870;DHT22;2961;47.702;9.410;2023-11-21T11:44:52;10.00;99.90
5870;DHT22;2961;47.702;9.410;2023-11-21T11:47:22;10.00;99.90
5870;DHT22;2961;47.702;9.410;2023-11-21T11:50:04;10.00;99.90
5870;DHT22;2961;47.702;9.410;2023-11-21T11:52:37;10.00;99.90
5870;DHT22;2961;47.702;9.410;2023-11-21T11:55:07;10.00;99.90
5870;DHT22;2961;47.702;9.410;2023-11-21T11:57:35;10.00;99.90
5870;DHT22;2961;47.702;9.410;2023-11-21T12:00:15;10.00;99.90
5870;DHT22;2961;47.702;9.410;2023-11-21T12:02:45;10.00;99.90
5870;DHT22;2961;47.702;9.410;2023-11-21T12:05:14;9.80;99.90
5870;DHT22;2961;47.702;9.410;2023-11-21T12:07:43;9.70;99.90
5870;DHT22;2961;47.702;9.410;2023-11-21T12:10:12;9.60;99.90
5870;DHT22;2961;47.702;9.410;2023-11-21T12:12:43;9.70;99.90
5870;DHT22;2961;47.702;9.410;2023-11-21T12:15:11;9.70;99.90
5870;DHT22;2961;47.702;9.410;2023-11-21T12:17:42;9.60;99.90
5870;DHT22;2961;47.702;9.410;2023-11-21T12:20:10;9.50;99.90
5870;DHT22;2961;47.702;9.410;2023-11-21T12:22:45;9.40;99.90
5870;DHT22;2961;47.702;9.410;2023-11-21T12:25:14;9.40;99.90
5870;DHT22;2961;47.702;9.410;2023-11-21T12:27:44;9.40;99.90
5870;DHT22;2961;47.702;9.410;2023-11-21T12:30:12;9.50;99.90
5870;DHT22;2961;47.702;9.410;2023-11-21T12:32:42;9.50;99.90
5870;DHT22;2961;47.702;9.410;2023-11-21T12:35:11;9.50;99.90
5870;DHT22;2961;47.702;9.410;2023-11-21T12:37:39;9.50;99.90
5870;DHT22;2961;47.702;9.410;2023-11-21T12:40:09;9.50;99.90
5870;DHT22;2961;47.702;9.410;2023-11-21T12:42:37;9.50;99.90
5870;DHT22;2961;47.702;9.410;2023-11-21T12:45:10;9.50;99.90
5870;DHT22;2961;47.702;9.410;2023-11-21T12:47:43;9.50;99.90
5870;DHT22;2961;47.702;9.410;2023-11-21T12:50:11;9.40;99.90
5870;DHT22;2961;47.702;9.410;2023-11-21T12:52:41;9.30;99.90
5870;DHT22;2961;47.702;9.410;2023-11-21T12:55:09;9.30;99.90
5870;DHT22;2961;47.702;9.410;2023-11-21T12:57:41;9.30;99.90
5870;DHT22;2961;47.702;9.410;2023-11-21T13:00:10;9.30;99.90
5870;DHT22;2961;47.702;9.410;2023-11-21T13:02:42;9.40;99.90
5870;DHT22;2961;47.702;9.410;2023-11-21T13:05:09;9.50;99.90
5870;DHT22;2961;47.702;9.410;2023-11-21T13:07:47;9.50;99.90
5870;DHT22;2961;47.702;9.410;2023-11-21T13:10:16;9.50;99.90
5870;DHT22;2961;47.702;9.410;2023-11-21T13:12:44;9.50;99.90
5870;DHT22;2961;47.702;9.410;2023-11-21T13:15:14;9.40;99.90
5870;DHT22;2961;47.702;9.410;2023-11-21T13:17:44;9.40;99.90
5870;DHT22;2961;47.702;9.410;2023-11-21T13:20:11;9.20;99.90
5870;DHT22;2961;47.702;9.410;2023-11-21T13:22:46;9.20;99.90
5870;DHT22;2961;47.702;9.410;2023-11-21T13:25:14;9.20;99.90
5870;DHT22;2961;47.702;9.410;2023-11-21T13:27:43;9.10;99.90
5870;DHT22;2961;47.702;9.410;2023-11-21T13:30:12;9.00;99.90
5870;DHT22;2961;47.702;9.410;2023-11-21T13:32:40;8.90;99.90
5870;DHT22;2961;47.702;9.410;2023-11-21T13:35:09;8.80;99.90
5870;DHT22;2961;47.702;9.410;2023-11-21T13:37:47;8.70;99.90
5870;DHT22;2961;47.702;9.410;2023-11-21T13:40:15;8.70;99.90
5870;DHT22;2961;47.702;9.410;2023-11-21T13:42:48;8.70;99.90
5870;DHT22;2961;47.702;9.410;2023-11-21T13:45:19;8.80;99.90
5870;DHT22;2961;47.702;9.410;2023-11-21T13:47:47;8.90;99.90
5870;DHT22;2961;47.702;9.410;2023-11-21T13:50:18;8.90;99.90
5870;DHT22;2961;47.702;9.410;2023-11-21T13:52:48;9.10;99.90
5870;DHT22;2961;47.702;9.410;2023-11-21T13:55:16;9.20;99.90
5870;DHT22;2961;47.702;9.410;2023-11-21T13:57:43;9.30;99.90
5870;DHT22;2961;47.702;9.410;2023-11-21T14:00:13;9.40;99.90
5870;DHT22;2961;47.702;9.410;2023-11-21T14:03:01;9.40;99.90
5870;DHT22;2961;47.702;9.410;2023-11-21T14:05:35;9.40;99.90
5870;DHT22;2961;47.702;9.410;2023-11-21T14:08:03;9.40;99.90
5870;DHT22;2961;47.702;9.410;2023-11-21T14:10:31;9.40;99.90
5870;DHT22;2961;47.702;9.410;2023-11-21T14:13:05;9.40;99.90
5870;DHT22;2961;47.702;9.410;2023-11-21T14:15:32;9.50;99.90
5870;DHT22;2961;47.702;9.410;2023-11-21T14:18:04;9.40;99.90
5870;DHT22;2961;47.702;9.410;2023-11-21T14:20:34;9.30;99.90
5870;DHT22;2961;47.702;9.410;2023-11-21T14:23:02;9.30;99.90
5870;DHT22;2961;47.702;9.410;2023-11-21T14:25:29;9.60;99.90
5870;DHT22;2961;47.702;9.410;2023-11-21T14:27:57;9.90;99.90
5870;DHT22;2961;47.702;9.410;2023-11-21T14:30:24;9.90;99.90
5870;DHT22;2961;47.702;9.410;2023-11-21T14:32:52;9.80;99.90
5870;DHT22;2961;47.702;9.410;2023-11-21T14:35:19;9.70;99.90
5870;DHT22;2961;47.702;9.410;2023-11-21T14:37:47;9.50;99.90
5870;DHT22;2961;47.702;9.410;2023-11-21T14:40:14;9.50;99.90
5870;DHT22;2961;47.702;9.410;2023-11-21T14:42:43;9.40;99.90
5870;DHT22;2961;47.702;9.410;2023-11-21T14:45:13;9.30;99.90
5870;DHT22;2961;47.702;9.410;2023-11-21T14:47:45;9.20;99.90
5870;DHT22;2961;47.702;9.410;2023-11-21T14:50:20;9.10;99.90
5870;DHT22;2961;47.702;9.410;2023-11-21T14:53:12;9.00;99.90
5870;DHT22;2961;47.702;9.410;2023-11-21T14:55:38;8.90;99.90
5870;DHT22;2961;47.702;9.410;2023-11-21T14:58:19;8.70;99.90
5870;DHT22;2961;47.702;9.410;2023-11-21T15:00:53;8.60;99.90
5870;DHT22;2961;47.702;9.410;2023-11-21T15:03:23;8.40;99.90
5870;DHT22;2961;47.702;9.410;2023-11-21T15:06:09;8.30;99.90
5870;DHT22;2961;47.702;9.410;2023-11-21T15:08:49;8.10;99.90
5870;DHT22;2961;47.702;9.410;2023-11-21T15:11:21;7.90;99.90
5870;DHT22;2961;47.702;9.410;2023-11-21T15:13:53;7.90;99.90
5870;DHT22;2961;47.702;9.410;2023-11-21T15:16:20;7.80;99.90
5870;DHT22;2961;47.702;9.410;2023-11-21T15:18:46;7.70;99.90
5870;DHT22;2961;47.702;9.410;2023-11-21T15:21:13;7.60;99.90
5870;DHT22;2961;47.702;9.410;2023-11-21T15:23:40;7.50;99.90
5870;DHT22;2961;47.702;9.410;2023-11-21T15:26:08;7.50;99.90
5870;DHT22;2961;47.702;9.410;2023-11-21T15:28:36;7.50;99.90
5870;DHT22;2961;47.702;9.410;2023-11-21T15:31:02;7.50;99.90
5870;DHT22;2961;47.702;9.410;2023-11-21T15:33:29;7.40;99.90
5870;DHT22;2961;47.702;9.410;2023-11-21T15:35:56;7.40;99.90
5870;DHT22;2961;47.702;9.410;2023-11-21T15:38:24;7.40;99.90
5870;DHT22;2961;47.702;9.410;2023-11-21T15:40:51;7.30;99.90
5870;DHT22;2961;47.702;9.410;2023-11-21T15:43:19;7.30;99.90
5870;DHT22;2961;47.702;9.410;2023-11-21T15:45:46;7.30;99.90
5870;DHT22;2961;47.702;9.410;2023-11-21T15:48:13;7.30;99.90
5870;DHT22;2961;47.702;9.410;2023-11-21T15:50:41;7.30;99.90
5870;DHT22;2961;47.702;9.410;2023-11-21T15:53:08;7.20;99.90
5870;DHT22;2961;47.702;9.410;2023-11-21T15:55:35;7.10;99.90
5870;DHT22;2961;47.702;9.410;2023-11-21T15:58:07;7.00;99.90
5870;DHT22;2961;47.702;9.410;2023-11-21T16:00:35;7.00;99.90
5870;DHT22;2961;47.702;9.410;2023-11-21T16:03:02;7.00;99.90
5870;DHT22;2961;47.702;9.410;2023-11-21T16:05:29;7.00;99.90
5870;DHT22;2961;47.702;9.410;2023-11-21T16:07:56;7.00;99.90
5870;DHT22;2961;47.702;9.410;2023-11-21T16:10:23;6.90;99.90
5870;DHT22;2961;47.702;9.410;2023-11-21T16:12:50;6.90;99.90
5870;DHT22;2961;47.702;9.410;2023-11-21T16:15:17;6.90;99.90
5870;DHT22;2961;47.702;9.410;2023-11-21T16:17:45;6.90;99.90
5870;DHT22;2961;47.702;9.410;2023-11-21T16:20:12;6.90;99.90
5870;DHT22;2961;47.702;9.410;2023-11-21T16:22:40;7.00;99.90
5870;DHT22;2961;47.702;9.410;2023-11-21T16:25:08;7.00;99.90